Time;durP1;ratioP1;P1;durP2;ratioP2;P2;SDS_P1;SDS_P2;PMS_P1;PMS_P2;Temp;Humidity;BMP_temperature;BMP_pressure;BME280_temperature;BME280_humidity;BME280_pressure;Samples;Min_cycle;Max_cycle;Signal;HPM_P1;HPM_P2
2021/03/17 00:00:56;;;;;;;;;;;;;;;2.27;71.76;99077.81;1807485;78;21784;-78
2021/03/17 00:03:42;;;;;;;;;;;;;;;2.27;71.77;99077.81;1809028;78;20548;-80
2021/03/17 00:06:28;;;;;;;;;;;;;;;2.25;71.82;99078.39;1796486;78;20253;-80
2021/03/17 00:09:16;;;;;;;;;;;;;;;2.24;71.86;99074.12;1796774;78;20516;-78
2021/03/17 00:12:01;;;;;;;;;;;;;;;2.22;71.91;99066.02;1806869;78;20212;-78
2021/03/17 00:14:47;;;;;;;;;;;;;;;2.17;71.94;99065.03;1801992;78;22298;-79
2021/03/17 00:17:33;;;;;;;;;;;;;;;2.16;72.00;99062.06;1805468;78;20222;-79
2021/03/17 00:20:19;;;;;;;;;;;;;;;2.16;72.06;99057.31;1785257;79;20227;-78
2021/03/17 00:23:04;;;;;;;;;;;;;;;2.14;72.09;99056.13;1803023;79;21330;-78
2021/03/17 00:25:50;;;;;;;;;;;;;;;2.11;72.13;99054.16;1739338;80;20265;-77
2021/03/17 00:28:35;;;;;;;;;;;;;;;2.10;72.20;99055.94;1758688;81;22388;-77
2021/03/17 00:31:21;;;;;;;;;;;;;;;2.11;72.25;99054.16;1770975;80;21667;-79
2021/03/17 00:34:07;;;;;;;;;;;;;;;2.12;72.26;99052.76;1745046;81;20232;-78
2021/03/17 00:36:52;;;;;;;;;;;;;;;2.12;72.27;99051.92;1707374;81;20500;-78
2021/03/17 00:39:38;;;;;;;;;;;;;;;2.12;72.33;99050.16;1737268;81;20142;-79
2021/03/17 00:42:23;;;;;;;;;;;;;;;2.13;72.35;99058.36;1767147;80;22513;-79
2021/03/17 00:45:09;;;;;;;;;;;;;;;2.14;72.37;99047.00;1759488;80;21122;-78
2021/03/17 00:47:55;;;;;;;;;;;;;;;2.13;72.39;99044.04;1762036;81;20232;-77
2021/03/17 00:50:22;;;;;;;;;;;;;;;2.13;72.40;99047.11;1782265;79;20500;-78
2021/03/17 00:52:52;;;;;;;;;;;;;;;2.13;72.44;99039.30;1781141;79;20503;-78
2021/03/17 00:55:21;;;;;;;;;;;;;;;2.09;72.47;99037.34;1786438;79;22963;-78
2021/03/17 00:57:50;;;;;;;;;;;;;;;2.12;72.50;99037.13;1792262;79;20606;-78
2021/03/17 01:00:19;;;;;;;;;;;;;;;2.12;72.50;99029.31;1731211;81;20226;-77
2021/03/17 01:02:46;;;;;;;;;;;;;;;2.13;72.57;99032.78;1756871;81;20307;-77
2021/03/17 01:05:15;;;;;;;;;;;;;;;2.12;72.62;99030.63;1782002;80;20221;-76
2021/03/17 01:07:42;;;;;;;;;;;;;;;2.13;72.63;99030.18;1744670;81;22054;-76
2021/03/17 01:10:13;;;;;;;;;;;;;;;2.12;72.67;99029.31;1735378;81;20467;-77
2021/03/17 01:12:41;;;;;;;;;;;;;;;2.13;72.66;99031.02;1741471;81;20242;-79
2021/03/17 01:17:48;;;;;;;;;;;;;;;2.14;72.73;99021.43;1783423;79;20280;-76
2021/03/17 01:20:17;;;;;;;;;;;;;;;2.16;72.74;99026.06;1764075;80;22066;-76
2021/03/17 01:22:45;;;;;;;;;;;;;;;2.15;72.75;99021.32;1792946;79;20368;-76
2021/03/17 01:25:15;;;;;;;;;;;;;;;2.15;72.80;99023.92;1792167;79;20448;-77
2021/03/17 01:27:43;;;;;;;;;;;;;;;2.16;72.82;99029.50;1795852;78;20305;-75
2021/03/17 01:30:11;;;;;;;;;;;;;;;2.16;72.85;99024.29;1795882;78;20235;-75
2021/03/17 01:32:38;;;;;;;;;;;;;;;2.16;72.90;99022.98;1813097;78;21385;-77
2021/03/17 01:35:13;;;;;;;;;;;;;;;2.15;72.93;99026.53;1821195;78;20286;-76
2021/03/17 01:37:40;;;;;;;;;;;;;;;2.16;72.98;99026.06;1800126;78;20216;-76
2021/03/17 01:40:10;;;;;;;;;;;;;;;2.16;72.98;99021.69;1809737;78;20478;-76
2021/03/17 01:42:37;;;;;;;;;;;;;;;2.18;73.02;99021.58;1791146;79;20233;-76
2021/03/17 01:45:10;;;;;;;;;;;;;;;2.17;73.05;99017.31;1783922;79;22969;-76
2021/03/17 01:47:39;;;;;;;;;;;;;;;2.16;73.12;99021.69;1801242;78;20457;-76
2021/03/17 01:50:09;;;;;;;;;;;;;;;2.15;73.13;99018.72;1804416;78;20261;-76
2021/03/17 01:52:36;;;;;;;;;;;;;;;2.16;73.16;99022.98;1765816;80;20300;-77
2021/03/17 01:55:06;;;;;;;;;;;;;;;2.17;73.21;99023.82;1802937;78;20495;-77
2021/03/17 01:57:34;;;;;;;;;;;;;;;2.17;73.23;99026.42;1806581;78;22766;-77
2021/03/17 02:00:03;;;;;;;;;;;;;;;2.17;73.27;99010.80;1798889;78;20823;-76
2021/03/17 02:02:32;;;;;;;;;;;;;;;2.17;73.31;99011.63;1799833;78;20278;-77
2021/03/17 02:05:00;;;;;;;;;;;;;;;2.18;73.33;99009.86;1808772;78;20514;-77
2021/03/17 02:07:28;;;;;;;;;;;;;;;2.17;73.39;99006.42;1801238;78;20287;-77
2021/03/17 02:09:55;;;;;;;;;;;;;;;2.14;73.42;99006.63;1797634;78;22037;-78
2021/03/17 02:12:38;;;;;;;;;;;;;;;2.13;73.48;98997.16;1806309;78;20225;-77
2021/03/17 02:15:14;;;;;;;;;;;;;;;2.13;73.53;98994.55;1795509;78;20558;-77
2021/03/17 02:17:43;;;;;;;;;;;;;;;2.11;73.58;98997.70;1790627;80;21269;-78
2021/03/17 02:20:31;;;;;;;;;;;;;;;2.12;73.61;98992.85;1794179;78;20278;-79
2021/03/17 02:23:02;;;;;;;;;;;;;;;2.14;73.60;98987.09;1766519;79;21841;-78
2021/03/17 02:25:55;;;;;;;;;;;;;;;2.14;73.65;98991.01;1810896;79;20815;-78
2021/03/17 02:28:30;;;;;;;;;;;;;;;2.14;73.67;98994.91;1789857;79;20222;-79
2021/03/17 02:31:08;;;;;;;;;;;;;;;2.15;73.75;98990.53;1796690;79;21450;-79
2021/03/17 02:33:57;;;;;;;;;;;;;;;2.15;73.76;98987.46;1788798;79;20233;-77
2021/03/17 02:36:34;;;;;;;;;;;;;;;2.17;73.74;98991.27;1803149;79;22980;-77
2021/03/17 02:39:05;;;;;;;;;;;;;;;2.16;73.79;98990.42;1788632;79;20216;-78
2021/03/17 02:41:43;;;;;;;;;;;;;;;2.16;73.78;98989.59;1789093;79;20218;-79
2021/03/17 02:44:13;;;;;;;;;;;;;;;2.15;73.84;98993.97;1793707;79;20314;-79
2021/03/17 02:46:41;;;;;;;;;;;;;;;2.15;73.86;98989.23;1787852;79;20261;-77
2021/03/17 02:49:17;;;;;;;;;;;;;;;2.15;73.91;98983.55;1790299;79;22048;-78
2021/03/17 02:51:49;;;;;;;;;;;;;;;2.16;73.93;98984.39;1797690;79;20236;-78
2021/03/17 02:54:18;;;;;;;;;;;;;;;2.17;73.95;98993.86;1792588;79;20214;-76
2021/03/17 02:56:50;;;;;;;;;;;;;;;2.17;73.96;98994.70;1787931;79;20480;-77
2021/03/17 02:59:17;;;;;;;;;;;;;;;2.19;73.97;98985.47;1796712;79;20229;-77
2021/03/17 03:01:46;;;;;;;;;;;;;;;2.19;73.98;98987.61;1796190;79;22056;-76
2021/03/17 03:04:14;;;;;;;;;;;;;;;2.19;74.03;98987.61;1766673;79;20387;-77
2021/03/17 03:06:42;;;;;;;;;;;;;;;2.19;74.05;98988.08;1766222;79;20208;-77
2021/03/17 03:09:09;;;;;;;;;;;;;;;2.18;74.08;98995.06;1775290;79;20472;-76
2021/03/17 03:11:37;;;;;;;;;;;;;;;2.17;74.12;98993.39;1803616;79;20216;-76
2021/03/17 03:14:05;;;;;;;;;;;;;;;2.17;74.15;98988.19;1793933;79;22950;-75
2021/03/17 03:16:33;;;;;;;;;;;;;;;2.18;74.18;98992.45;1789748;79;20223;-76
2021/03/17 03:19:03;;;;;;;;;;;;;;;2.18;74.19;98987.25;1787510;80;20272;-77
2021/03/17 03:21:32;;;;;;;;;;;;;;;2.19;74.23;98986.77;1812909;78;20308;-76
2021/03/17 03:23:59;;;;;;;;;;;;;;;2.19;74.22;98985.00;1803200;78;20214;-78
2021/03/17 03:26:28;;;;;;;;;;;;;;;2.21;74.24;98979.69;1810102;78;21884;-78
2021/03/17 03:28:56;;;;;;;;;;;;;;;2.20;74.26;98982.76;1802680;78;21288;-77
2021/03/17 03:31:24;;;;;;;;;;;;;;;2.18;74.27;98979.43;1816826;78;20212;-78
2021/03/17 03:33:51;;;;;;;;;;;;;;;2.19;74.32;98978.48;1813259;78;20565;-78
2021/03/17 03:36:19;;;;;;;;;;;;;;;2.18;74.33;98975.99;1803551;78;20279;-77
2021/03/17 03:38:47;;;;;;;;;;;;;;;2.17;74.40;98976.94;1773333;78;22093;-77
2021/03/17 03:41:14;;;;;;;;;;;;;;;2.16;74.43;98972.20;1812062;78;20247;-77
2021/03/17 03:43:41;;;;;;;;;;;;;;;2.18;74.43;98972.09;1811660;78;20546;-77
2021/03/17 03:46:11;;;;;;;;;;;;;;;2.18;74.45;98967.70;1809743;78;20535;-78
2021/03/17 03:48:38;;;;;;;;;;;;;;;2.19;74.49;98966.77;1811865;78;20276;-78
2021/03/17 03:51:06;;;;;;;;;;;;;;;2.18;74.49;98968.18;1817293;78;21903;-79
2021/03/17 03:53:47;;;;;;;;;;;;;;;2.18;74.52;98968.18;1801161;78;21120;-79
2021/03/17 03:56:17;;;;;;;;;;;;;;;2.18;74.54;98969.02;1753233;78;20221;-77
2021/03/17 03:58:48;;;;;;;;;;;;;;;2.18;74.55;98966.88;1809088;78;20522;-78
2021/03/17 04:01:22;;;;;;;;;;;;;;;2.18;74.55;98969.02;1799361;78;20220;-77
2021/03/17 04:03:53;;;;;;;;;;;;;;;2.18;74.59;98966.41;1802122;78;21962;-78
2021/03/17 04:06:20;;;;;;;;;;;;;;;2.17;74.62;98962.61;1801908;78;20215;-79
2021/03/17 04:08:49;;;;;;;;;;;;;;;2.15;74.63;98961.41;1780098;80;20214;-79
2021/03/17 04:11:16;;;;;;;;;;;;;;;2.15;74.68;98969.23;1795648;78;22549;-78
2021/03/17 04:13:44;;;;;;;;;;;;;;;2.15;74.71;98963.19;1801289;78;20222;-78
2021/03/17 04:16:12;;;;;;;;;;;;;;;2.15;74.75;98965.32;1818943;78;21836;-78
2021/03/17 04:18:42;;;;;;;;;;;;;;;2.16;74.77;98960.47;1766682;80;20322;-78
2021/03/17 04:21:18;;;;;;;;;;;;;;;2.16;74.80;98963.08;1798379;78;20374;-80
2021/03/17 04:23:47;;;;;;;;;;;;;;;2.15;74.80;98961.88;1806778;78;20303;-77
2021/03/17 04:26:15;;;;;;;;;;;;;;;2.15;74.82;98961.88;1810397;78;20229;-79
2021/03/17 04:28:42;;;;;;;;;;;;;;;2.16;74.86;98961.77;1802754;78;21890;-78
2021/03/17 04:31:09;;;;;;;;;;;;;;;2.14;74.93;98971.47;1797923;78;21221;-78
2021/03/17 04:33:36;;;;;;;;;;;;;;;2.11;75.06;98966.45;1811456;78;20216;-78
2021/03/17 04:36:05;;;;;;;;;;;;;;;2.10;75.19;98966.08;1807049;78;20482;-78
2021/03/17 04:38:32;;;;;;;;;;;;;;;2.10;75.33;98966.08;1796638;78;20507;-78
2021/03/17 04:40:59;;;;;;;;;;;;;;;2.10;75.44;98967.86;1809957;78;21853;-78
2021/03/17 04:43:27;;;;;;;;;;;;;;;2.10;75.54;98969.98;1805948;78;20405;-77
2021/03/17 04:45:55;;;;;;;;;;;;;;;2.09;75.62;98966.19;1804400;78;20495;-78
2021/03/17 04:48:23;;;;;;;;;;;;;;;2.08;75.76;98970.56;1804020;78;20495;-78
2021/03/17 04:50:50;;;;;;;;;;;;;;;2.07;75.89;98961.56;1800049;79;20217;-76
2021/03/17 04:53:18;;;;;;;;;;;;;;;2.04;76.01;98970.42;1801047;78;22072;-76
2021/03/17 04:55:46;;;;;;;;;;;;;;;2.02;76.12;98968.36;1808997;78;20496;-78
2021/03/17 04:58:16;;;;;;;;;;;;;;;2.03;76.18;98969.19;1795676;78;20368;-77
2021/03/17 05:00:45;;;;;;;;;;;;;;;2.03;76.25;98970.06;1810642;78;20464;-78
2021/03/17 05:03:14;;;;;;;;;;;;;;;2.05;76.30;98969.95;1817047;78;20248;-76
2021/03/17 05:05:43;;;;;;;;;;;;;;;2.05;76.39;98969.48;1786502;78;22060;-78
2021/03/17 05:08:11;;;;;;;;;;;;;;;2.05;76.40;98983.80;1780013;79;21115;-80
2021/03/17 05:10:39;;;;;;;;;;;;;;;2.05;76.44;98975.99;1757675;80;20215;-81
2021/03/17 05:13:08;;;;;;;;;;;;;;;2.04;76.53;98982.14;1780529;79;21704;-80
2021/03/17 05:15:36;;;;;;;;;;;;;;;2.02;76.60;98977.48;1812015;78;20218;-80
2021/03/17 05:18:04;;;;;;;;;;;;;;;2.03;76.65;98979.61;1821872;78;22326;-76
2021/03/17 05:20:31;;;;;;;;;;;;;;;;;;1815946;78;20287;-78
2021/03/17 05:22:58;;;;;;;;;;;;;;;2.01;76.82;98984.45;1783797;80;20206;-81
2021/03/17 05:25:25;;;;;;;;;;;;;;;2.03;76.83;98986.13;1773149;80;20757;-77
2021/03/17 05:27:54;;;;;;;;;;;;;;;2.04;76.86;98991.25;1767341;80;20200;-78
2021/03/17 05:30:24;;;;;;;;;;;;;;;2.05;76.93;98986.87;1739188;80;22061;-80
2021/03/17 05:32:51;;;;;;;;;;;;;;;2.05;76.97;98989.48;1758162;80;20422;-79
2021/03/17 05:35:19;;;;;;;;;;;;;;;2.05;77.05;98987.70;1780686;80;20244;-78
2021/03/17 05:37:46;;;;;;;;;;;;;;;2.10;77.17;98988.22;1783514;78;20770;-78
2021/03/17 05:40:15;;;;;;;;;;;;;;;2.12;77.17;98982.91;1770980;80;20565;-77
2021/03/17 05:42:43;;;;;;;;;;;;;;;2.11;77.14;98985.98;1764804;80;22053;-78
2021/03/17 05:45:19;;;;;;;;;;;;;;;2.10;77.17;98988.69;1776791;80;21522;-79
2021/03/17 05:47:50;;;;;;;;;;;;;;;2.09;77.20;98989.16;1762421;80;20259;-78
2021/03/17 05:50:20;;;;;;;;;;;;;;;2.09;77.25;98988.33;1765078;80;20460;-78
2021/03/17 05:52:48;;;;;;;;;;;;;;;2.07;77.29;98987.13;1765011;80;20220;-79
2021/03/17 05:55:16;;;;;;;;;;;;;;;2.07;77.35;98987.13;1787644;78;23366;-78
2021/03/17 05:57:44;;;;;;;;;;;;;;;2.06;77.42;98988.55;1782615;78;20224;-78
2021/03/17 06:00:15;;;;;;;;;;;;;;;2.03;77.46;98993.49;1764865;80;20231;-78
2021/03/17 06:02:42;;;;;;;;;;;;;;;2.04;77.55;98996.94;1765857;80;20506;-78
2021/03/17 06:05:11;;;;;;;;;;;;;;;2.05;77.65;98994.69;1757586;80;20215;-77
2021/03/17 06:07:54;;;;;;;;;;;;;;;2.05;77.69;98992.92;1753595;81;21892;-76
2021/03/17 06:10:21;;;;;;;;;;;;;;;2.07;77.76;98992.81;1743490;81;20280;-78
2021/03/17 06:12:50;;;;;;;;;;;;;;;2.07;77.85;98994.11;1734581;81;20220;-77
2021/03/17 06:15:21;;;;;;;;;;;;;;;2.07;77.92;99004.06;1767306;80;21199;-79
2021/03/17 06:18:07;;;;;;;;;;;;;;;2.09;77.95;98993.06;1761985;80;20251;-79
2021/03/17 06:20:35;;;;;;;;;;;;;;;2.09;78.04;99000.05;1748770;81;22576;-77
2021/03/17 06:23:02;;;;;;;;;;;;;;;2.07;78.17;98997.55;1775356;79;20294;-78
2021/03/17 06:25:30;;;;;;;;;;;;;;;2.07;78.26;98996.25;1776916;79;20233;-78
2021/03/17 06:27:58;;;;;;;;;;;;;;;2.08;78.35;98995.78;1787858;79;20306;-78
2021/03/17 06:30:25;;;;;;;;;;;;;;;2.07;78.46;98994.95;1774390;79;20476;-79
2021/03/17 06:32:52;;;;;;;;;;;;;;;2.04;78.54;98992.55;1778263;79;22499;-79
2021/03/17 06:35:24;;;;;;;;;;;;;;;2.05;78.66;98992.92;1775506;79;20833;-78
2021/03/17 06:37:53;;;;;;;;;;;;;;;2.03;78.78;98986.98;1799410;79;20216;-78
2021/03/17 06:40:24;;;;;;;;;;;;;;;1.98;78.87;98983.37;1785749;79;20890;-78
2021/03/17 06:42:52;;;;;;;;;;;;;;;1.99;78.97;98986.80;1785238;79;20620;-78
2021/03/17 06:45:27;;;;;;;;;;;;;;;1.97;79.10;98989.52;1788493;79;21971;-79
2021/03/17 06:47:55;;;;;;;;;;;;;;;1.98;79.20;98983.84;1787169;79;20618;-79
2021/03/17 06:50:27;;;;;;;;;;;;;;;2.00;79.30;98984.09;1774629;79;20224;-79
2021/03/17 06:52:54;;;;;;;;;;;;;;;2.01;79.35;98992.73;1778386;79;20465;-78
2021/03/17 06:55:23;;;;;;;;;;;;;;;2.03;79.42;98990.03;1776552;79;20450;-77
2021/03/17 06:57:51;;;;;;;;;;;;;;;2.04;79.47;98985.21;1776054;79;22056;-77
2021/03/17 07:00:30;;;;;;;;;;;;;;;2.04;79.47;98986.05;1778136;79;20447;-77
2021/03/17 07:03:01;;;;;;;;;;;;;;;2.06;79.56;98992.45;1774981;79;20428;-76
2021/03/17 07:05:37;;;;;;;;;;;;;;;2.06;79.60;98989.38;1774393;81;20469;-78
2021/03/17 07:08:06;;;;;;;;;;;;;;;2.07;79.60;98989.73;1792960;79;20523;-75
2021/03/17 07:10:44;;;;;;;;;;;;;;;2.05;79.59;98985.11;1784642;79;22071;-74
2021/03/17 07:13:13;;;;;;;;;;;;;;;2.05;79.65;98990.78;1788797;79;20438;-77
2021/03/17 07:15:41;;;;;;;;;;;;;;;2.06;79.71;98991.15;1801328;79;20225;-78
2021/03/17 07:18:24;;;;;;;;;;;;;;;2.06;79.74;98988.07;1801439;79;20468;-77
2021/03/17 07:20:54;;;;;;;;;;;;;;;2.05;79.77;98985.11;1816797;78;20265;-77
2021/03/17 07:23:41;;;;;;;;;;;;;;;2.00;79.73;98987.17;1782842;78;23329;-79
2021/03/17 07:26:17;;;;;;;;;;;;;;;1.97;79.80;98990.81;1765585;79;20359;-76
2021/03/17 07:28:55;;;;;;;;;;;;;;;1.97;79.83;98980.40;1787060;79;20224;-75
2021/03/17 07:31:24;;;;;;;;;;;;;;;1.99;79.86;98985.50;1797091;79;20513;-74
2021/03/17 07:33:51;;;;;;;;;;;;;;;2.02;79.94;98981.38;1772683;79;20220;-74
2021/03/17 07:36:43;;;;;;;;;;;;;;;2.05;79.99;98981.67;1770372;80;24067;-77
2021/03/17 07:39:13;;;;;;;;;;;;;;;2.06;79.98;98988.07;1776663;80;20435;-78
2021/03/17 07:41:41;;;;;;;;;;;;;;;2.09;80.04;98992.23;1802175;79;20236;-78
2021/03/17 07:44:11;;;;;;;;;;;;;;;2.10;80.06;98993.43;1787815;78;21356;-78
2021/03/17 07:46:40;;;;;;;;;;;;;;;2.11;80.06;98988.58;1793836;80;20127;-78
2021/03/17 07:49:08;;;;;;;;;;;;;;;2.13;80.09;98989.34;1780663;80;22977;-75
2021/03/17 07:51:38;;;;;;;;;;;;;;;2.12;80.03;98992.85;1738975;81;20228;-79
2021/03/17 07:54:06;;;;;;;;;;;;;;;2.11;79.99;98989.05;1790861;79;20213;-73
2021/03/17 07:56:33;;;;;;;;;;;;;;;2.12;79.97;98995.93;1784961;79;20911;-76
2021/03/17 07:59:00;;;;;;;;;;;;;;;2.12;79.93;98992.85;1789041;79;20779;-75
2021/03/17 08:01:27;;;;;;;;;;;;;;;2.11;79.86;98995.09;1779128;79;22341;-77
2021/03/17 08:03:55;;;;;;;;;;;;;;;2.07;79.77;98995.42;1791544;79;20802;-76
2021/03/17 08:06:22;;;;;;;;;;;;;;;2.04;79.80;98990.42;1762447;80;20220;-78
2021/03/17 08:08:50;;;;;;;;;;;;;;;2.01;79.82;98992.73;1749923;81;21385;-79
2021/03/17 08:11:19;;;;;;;;;;;;;;;2.00;79.88;98991.07;1776163;80;20205;-78
2021/03/17 08:13:51;;;;;;;;;;;;;;;1.99;79.95;98992.84;1793058;78;22045;-77
2021/03/17 08:16:20;;;;;;;;;;;;;;;2.03;80.03;98990.03;1770699;78;20832;-77
2021/03/17 08:18:50;;;;;;;;;;;;;;;2.05;80.05;99000.73;1799797;78;20493;-77
2021/03/17 08:21:45;;;;;;;;;;;;;;;2.08;80.09;98992.70;1797514;78;20445;-75
2021/03/17 08:24:33;;;;;;;;;;;;;;;2.13;80.10;98993.25;1795438;78;20222;-75
2021/03/17 08:27:04;;;;;;;;;;;;;;;2.14;80.09;98985.80;1799665;78;22103;-75
2021/03/17 08:29:38;;;;;;;;;;;;;;;2.13;80.12;98991.11;1791997;78;20283;-78
2021/03/17 08:32:07;;;;;;;;;;;;;;;2.14;80.14;98991.01;1799835;79;20510;-78
2021/03/17 08:34:35;;;;;;;;;;;;;;;2.15;80.19;98990.53;1803050;78;20518;-78
2021/03/17 08:37:05;;;;;;;;;;;;;;;2.15;80.17;98990.06;1818540;78;20634;-75
2021/03/17 08:39:39;;;;;;;;;;;;;;;2.16;80.15;98992.20;1799086;79;22056;-75
2021/03/17 08:42:09;;;;;;;;;;;;;;;2.18;80.24;98993.75;1795759;78;21637;-74
2021/03/17 08:44:41;;;;;;;;;;;;;;;2.22;80.24;98995.67;1796634;78;20265;-73
2021/03/17 08:47:17;;;;;;;;;;;;;;;2.21;80.26;98992.23;1803555;78;20469;-73
2021/03/17 08:49:50;;;;;;;;;;;;;;;2.24;80.20;98993.83;1812031;78;20250;-73
2021/03/17 08:52:26;;;;;;;;;;;;;;;2.24;80.24;98993.83;1798241;78;22504;-73
2021/03/17 08:54:57;;;;;;;;;;;;;;;2.25;80.25;98996.80;1793285;80;20235;-72
2021/03/17 08:57:24;;;;;;;;;;;;;;;2.24;80.26;98989.45;1809310;78;20216;-74
2021/03/17 08:59:59;;;;;;;;;;;;;;;2.24;80.30;99002.48;1824440;78;20398;-73
2021/03/17 09:02:31;;;;;;;;;;;;;;;2.29;80.35;98998.24;1797973;78;20222;-74
2021/03/17 09:05:04;;;;;;;;;;;;;;;2.31;80.35;98995.06;1795529;80;21740;-73
2021/03/17 09:07:32;;;;;;;;;;;;;;;2.33;80.29;98994.98;1796482;78;20290;-74
2021/03/17 09:10:10;;;;;;;;;;;;;;;2.32;80.27;98989.38;1818634;78;20231;-74
2021/03/17 09:12:41;;;;;;;;;;;;;;;2.32;80.28;98995.45;1782753;79;20981;-71
2021/03/17 09:15:14;;;;;;;;;;;;;;;2.35;80.34;98991.33;1806984;78;20243;-74
2021/03/17 09:17:58;;;;;;;;;;;;;;;2.38;80.40;98997.63;1800471;78;21882;-74
2021/03/17 09:20:32;;;;;;;;;;;;;;;2.42;80.36;98998.27;1795786;80;20225;-72
2021/03/17 09:23:18;;;;;;;;;;;;;;;2.46;80.39;99002.33;1795659;79;20216;-72
2021/03/17 09:25:52;;;;;;;;;;;;;;;2.53;80.45;99007.49;1781991;79;20352;-73
2021/03/17 09:28:24;;;;;;;;;;;;;;;2.59;80.45;99012.27;1798718;78;20404;-73
2021/03/17 09:30:57;;;;;;;;;;;;;;;2.64;80.45;99012.80;1819557;78;22351;-73
2021/03/17 09:33:30;;;;;;;;;;;;;;;2.70;80.42;99014.13;1795504;80;21138;-74
2021/03/17 09:35:59;;;;;;;;;;;;;;;2.71;80.28;99017.97;1808153;78;20228;-73
2021/03/17 09:38:29;;;;;;;;;;;;;;;2.69;80.18;99018.52;1804881;78;20465;-73
2021/03/17 09:41:02;;;;;;;;;;;;;;;2.68;80.14;99022.53;1795906;78;20429;-72
2021/03/17 09:43:37;;;;;;;;;;;;;;;2.67;80.11;99023.48;1786478;79;22929;-73
2021/03/17 11:03:25;;;;;;;;;;;;;;;2.90;79.85;99039.70;1839417;76;21194;-73
2021/03/17 11:05:55;;;;;;;;;;;;;;;2.88;79.81;99031.13;1837750;76;20219;-75
2021/03/17 11:08:22;;;;;;;;;;;;;;;2.91;79.85;99031.41;1845805;76;20268;-75
2021/03/17 11:10:54;;;;;;;;;;;;;;;2.92;79.81;99031.77;1862278;76;20464;-75
2021/03/17 11:13:24;;;;;;;;;;;;;;;2.87;79.79;99030.28;1795071;79;20487;-73
2021/03/17 11:15:55;;;;;;;;;;;;;;;2.87;79.79;99027.68;1775858;80;22852;-74
2021/03/17 11:18:29;;;;;;;;;;;;;;;2.85;79.77;99023.52;1792536;79;20272;-73
2021/03/17 11:21:09;;;;;;;;;;;;;;;2.80;79.82;99022.55;1793997;80;20229;-73
2021/03/17 11:23:38;;;;;;;;;;;;;;;2.79;79.87;99026.06;1768537;79;21784;-74
2021/03/17 11:26:07;;;;;;;;;;;;;;;2.83;79.94;99028.84;1773203;79;20260;-73
2021/03/17 11:28:38;;;;;;;;;;;;;;;2.83;79.92;99031.45;1784569;79;21888;-74
2021/03/17 11:31:07;;;;;;;;;;;;;;;2.87;79.98;99025.08;1775996;79;20364;-73
2021/03/17 11:33:35;;;;;;;;;;;;;;;2.87;79.99;99028.16;1778271;79;20221;-75
2021/03/17 11:36:04;;;;;;;;;;;;;;;2.91;80.03;99028.80;1780738;79;20335;-74
2021/03/17 11:38:31;;;;;;;;;;;;;;;2.91;80.03;99026.19;1772941;79;20219;-74
2021/03/17 11:40:58;;;;;;;;;;;;;;;2.87;80.02;99027.68;1774888;79;21441;-75
2021/03/17 11:43:29;;;;;;;;;;;;;;;2.92;80.06;99023.94;1773791;79;21075;-72
2021/03/17 11:45:58;;;;;;;;;;;;;;;2.91;80.02;99030.09;1778840;79;20224;-73
2021/03/17 11:48:27;;;;;;;;;;;;;;;2.88;79.95;99032.42;1783521;79;20383;-76
2021/03/17 11:50:56;;;;;;;;;;;;;;;2.90;80.02;99031.88;1792476;79;20234;-74
2021/03/17 11:53:23;;;;;;;;;;;;;;;2.92;80.11;99034.38;1772165;80;22509;-74
2021/03/17 11:55:50;;;;;;;;;;;;;;;2.94;80.08;99033.31;1776152;78;20526;-73
2021/03/17 11:58:18;;;;;;;;;;;;;;;2.97;80.11;99030.95;1791058;78;20977;-73
2021/03/17 12:00:45;;;;;;;;;;;;;;;2.99;80.09;99037.76;1798007;78;20751;-74
2021/03/17 12:03:15;;;;;;;;;;;;;;;3.00;80.13;99034.67;1795166;78;20222;-74
2021/03/17 12:05:43;;;;;;;;;;;;;;;3.02;80.18;99034.09;1795484;79;22024;-73
2021/03/17 12:08:10;;;;;;;;;;;;;;;3.04;80.17;99036.12;1789441;80;20633;-74
2021/03/17 12:10:40;;;;;;;;;;;;;;;3.04;80.15;99039.56;1781687;78;20268;-74
2021/03/17 12:13:08;;;;;;;;;;;;;;;3.05;80.14;99039.92;1817584;78;20678;-74
2021/03/17 12:15:35;;;;;;;;;;;;;;;3.03;80.10;99039.67;1820184;78;20208;-74
2021/03/17 12:18:04;;;;;;;;;;;;;;;2.98;80.10;99037.84;1803745;78;23082;-74
2021/03/17 12:20:33;;;;;;;;;;;;;;;2.99;80.11;99048.63;1795912;78;21639;-75
2021/03/17 12:23:02;;;;;;;;;;;;;;;2.96;80.05;99041.86;1795437;78;20248;-72
2021/03/17 12:25:29;;;;;;;;;;;;;;;2.96;80.10;99048.37;1790252;78;20610;-75
2021/03/17 12:27:56;;;;;;;;;;;;;;;2.99;80.10;99055.15;1794184;78;20237;-73
2021/03/17 12:30:24;;;;;;;;;;;;;;;3.00;80.11;99054.23;1808509;78;22135;-73
2021/03/17 12:32:51;;;;;;;;;;;;;;;2.97;80.11;99051.82;1805014;78;20882;-74
2021/03/17 12:35:19;;;;;;;;;;;;;;;2.97;80.16;99053.12;1787094;79;20215;-73
2021/03/17 12:37:47;;;;;;;;;;;;;;;2.97;80.18;99055.27;1790845;79;21169;-74
2021/03/17 12:40:17;;;;;;;;;;;;;;;2.99;80.19;99054.71;1790338;79;20492;-74
2021/03/17 12:42:44;;;;;;;;;;;;;;;2.98;80.21;99050.88;1797653;79;22916;-74
2021/03/17 12:45:15;;;;;;;;;;;;;;;2.99;80.21;99053.41;1786875;80;20672;-74
2021/03/17 12:47:42;;;;;;;;;;;;;;;2.97;80.17;99049.21;1815754;78;20565;-74
2021/03/17 12:50:11;;;;;;;;;;;;;;;2.94;80.19;99052.88;1810948;78;21123;-71
2021/03/17 12:52:38;;;;;;;;;;;;;;;2.94;80.20;99050.27;1786855;80;20239;-72
2021/03/17 12:55:07;;;;;;;;;;;;;;;2.97;80.21;99050.52;1786945;79;21892;-71
2021/03/17 12:57:35;;;;;;;;;;;;;;;2.96;80.16;99051.46;1775258;79;21275;-73
2021/03/17 13:00:05;;;;;;;;;;;;;;;2.95;80.17;99055.02;1788092;79;20267;-76
2021/03/17 13:02:33;;;;;;;;;;;;;;;2.93;80.19;99054.29;1775083;80;21584;-77
2021/03/17 13:05:02;;;;;;;;;;;;;;;2.92;80.17;99060.45;1762932;80;20291;-78
2021/03/17 13:07:29;;;;;;;;;;;;;;;2.91;80.19;99053.56;1751214;79;22588;-77
2021/03/17 13:09:58;;;;;;;;;;;;;;;2.91;80.21;99053.09;1775845;80;20226;-73
2021/03/17 13:12:26;;;;;;;;;;;;;;;2.92;80.25;99051.33;1749278;80;20484;-74
2021/03/17 13:14:55;;;;;;;;;;;;;;;2.93;80.27;99052.98;1781287;79;20761;-74
2021/03/17 13:17:23;;;;;;;;;;;;;;;2.95;80.27;99060.23;1785722;79;20194;-72
2021/03/17 13:19:50;;;;;;;;;;;;;;;2.93;80.31;99059.51;1767355;79;22133;-72
2021/03/17 13:22:18;;;;;;;;;;;;;;;2.93;80.33;99059.03;1761557;80;20305;-78
2021/03/17 13:24:45;;;;;;;;;;;;;;;2.94;80.37;99066.39;1775063;79;20220;-73
2021/03/17 13:27:14;;;;;;;;;;;;;;;2.93;80.40;99064.25;1763779;80;22920;-74
2021/03/17 13:29:44;;;;;;;;;;;;;;;2.96;80.44;99072.33;1750676;80;20228;-72
2021/03/17 13:32:11;;;;;;;;;;;;;;;2.94;80.40;99069.83;1785854;79;21893;-74
2021/03/17 13:34:39;;;;;;;;;;;;;;;2.94;80.39;99074.21;1766964;80;20387;-73
2021/03/17 13:37:07;;;;;;;;;;;;;;;2.93;80.40;99075.16;1762809;80;20389;-72
2021/03/17 13:39:36;;;;;;;;;;;;;;;2.93;80.43;99075.98;1773299;79;20529;-72
2021/03/17 13:42:04;;;;;;;;;;;;;;;2.91;80.43;99070.05;1757484;79;20250;-71
2021/03/17 13:44:32;;;;;;;;;;;;;;;2.92;80.44;99074.80;1773870;79;22063;-72
2021/03/17 13:46:59;;;;;;;;;;;;;;;2.88;80.41;99076.76;1723100;82;20396;-72
2021/03/17 13:49:26;;;;;;;;;;;;;;;2.86;80.38;99071.65;1754567;79;20420;-72
2021/03/17 13:51:54;;;;;;;;;;;;;;;2.84;80.37;99074.84;1761726;79;20475;-72
2021/03/17 13:54:21;;;;;;;;;;;;;;;2.80;80.29;99079.08;1782544;79;20235;-72
2021/03/17 13:56:49;;;;;;;;;;;;;;;2.75;80.28;99078.55;1812391;79;21876;-72
2021/03/17 13:59:17;;;;;;;;;;;;;;;2.71;80.29;99089.66;1803447;79;21282;-72
2021/03/17 14:01:44;;;;;;;;;;;;;;;2.70;80.32;99085.39;1801711;79;20209;-73
2021/03/17 14:04:12;;;;;;;;;;;;;;;2.70;80.33;99090.60;1774780;79;20622;-73
2021/03/17 14:06:39;;;;;;;;;;;;;;;2.68;80.33;99089.02;1778387;79;20227;-72
2021/03/17 14:09:06;;;;;;;;;;;;;;;2.66;80.35;99092.20;1775595;79;22340;-71
2021/03/17 14:11:33;;;;;;;;;;;;;;;2.64;80.38;99091.00;1772793;81;20647;-72
2021/03/17 14:14:01;;;;;;;;;;;;;;;2.63;80.40;99090.64;1773862;80;20219;-71
2021/03/17 14:16:28;;;;;;;;;;;;;;;2.64;80.41;99087.09;1793129;79;20717;-73
2021/03/17 14:18:55;;;;;;;;;;;;;;;2.66;80.46;99088.29;1772846;81;20207;-73
2021/03/17 14:21:23;;;;;;;;;;;;;;;2.68;80.50;99087.70;1776063;80;22992;-73
2021/03/17 14:23:51;;;;;;;;;;;;;;;2.70;80.51;99092.34;1772537;79;20272;-73
2021/03/17 14:26:18;;;;;;;;;;;;;;;2.70;80.56;99087.99;1772770;81;20223;-72
2021/03/17 14:28:46;;;;;;;;;;;;;;;2.70;80.58;99091.05;1776545;79;20795;-72
2021/03/17 14:31:14;;;;;;;;;;;;;;;2.72;80.63;99086.11;1760695;79;20275;-73
2021/03/17 14:33:43;;;;;;;;;;;;;;;2.71;80.60;99091.44;1772716;81;22061;-74
2021/03/17 14:36:13;;;;;;;;;;;;;;;2.66;80.63;99095.64;1781881;79;21150;-73